createdAt,value
2022-11-25T00:00:40.739Z,1.33
2022-11-25T00:03:28.493Z,2.25
2022-11-25T00:06:22.149Z,3.00
2022-11-25T00:09:13.450Z,0.40
2022-11-25T00:12:01.208Z,1.17
2022-11-25T00:14:48.908Z,0.80
2022-11-25T00:17:36.684Z,0.47
2022-11-25T00:20:24.440Z,1.23
2022-11-25T00:23:12.023Z,0.60
2022-11-25T00:26:07.007Z,0.68
2022-11-25T00:28:55.120Z,0.75
2022-11-25T00:31:43.076Z,0.85
2022-11-25T00:34:31.349Z,0.80
2022-11-25T00:37:19.062Z,2.13
2022-11-25T00:40:07.429Z,0.70
2022-11-25T00:43:13.428Z,0.50
2022-11-25T00:46:01.130Z,0.60
2022-11-25T00:48:48.887Z,3.72
2022-11-25T00:51:36.590Z,1.48
2022-11-25T00:54:24.351Z,0.63
2022-11-25T00:57:12.991Z,0.70
2022-11-25T01:00:00.642Z,0.70
2022-11-25T01:02:48.623Z,0.77
2022-11-25T01:05:36.414Z,1.45
2022-11-25T01:08:24.139Z,2.20
2022-11-25T01:11:17.599Z,0.30
2022-11-25T01:14:05.596Z,0.82
2022-11-25T01:16:53.395Z,1.17
2022-11-25T01:19:42.203Z,3.67
2022-11-25T01:22:29.896Z,0.85
2022-11-25T01:25:17.596Z,3.22
2022-11-25T01:28:05.690Z,0.82
2022-11-25T01:31:04.612Z,1.63
2022-11-25T01:34:00.827Z,1.60
2022-11-25T01:36:48.773Z,1.50
2022-11-25T01:39:38.992Z,1.10
2022-11-25T01:42:30.030Z,2.03
2022-11-25T01:45:33.514Z,3.55
2022-11-25T01:48:29.322Z,2.05
2022-11-25T01:51:28.335Z,1.70
2022-11-25T01:54:21.844Z,2.13
2022-11-25T01:57:17.904Z,3.15
2022-11-25T02:00:08.096Z,3.83
2022-11-25T02:03:05.377Z,2.42
2022-11-25T02:05:52.890Z,1.38
2022-11-25T02:08:42.303Z,1.23
2022-11-25T02:11:31.273Z,1.40
2022-11-25T02:14:21.731Z,2.70
2022-11-25T02:17:09.415Z,3.38
2022-11-25T02:20:10.856Z,3.78
2022-11-25T02:23:12.621Z,0.30
2022-11-25T02:26:00.865Z,0.93
2022-11-25T02:28:49.125Z,1.48
2022-11-25T02:31:37.785Z,2.45
2022-11-25T02:34:25.750Z,3.17
2022-11-25T02:37:14.207Z,1.77
2022-11-25T02:40:02.952Z,0.90
2022-11-25T02:42:51.314Z,5.57
2022-11-25T02:46:00.412Z,2.15
2022-11-25T02:51:55.999Z,1.63
2022-11-25T02:54:43.727Z,2.55
2022-11-25T02:57:31.400Z,0.38
2022-11-25T03:00:19.524Z,3.38
2022-11-25T03:03:07.527Z,1.15
2022-11-25T03:05:55.276Z,1.23
2022-11-25T03:08:45.513Z,2.70
2022-11-25T03:11:52.638Z,2.53
2022-11-25T03:14:41.215Z,1.85
2022-11-25T03:17:28.904Z,1.33
2022-11-25T03:20:16.946Z,3.22
2022-11-25T03:23:05.353Z,1.20
2022-11-25T03:25:53.132Z,1.23
2022-11-25T03:28:40.792Z,1.17
2022-11-25T03:31:30.512Z,0.88
2022-11-25T03:34:18.333Z,1.27
2022-11-25T03:37:06.287Z,3.20
2022-11-25T03:39:54.228Z,3.60
2022-11-25T03:42:44.978Z,3.80
2022-11-25T03:45:33.159Z,0.82
2022-11-25T03:48:24.470Z,6.53
2022-11-25T03:51:12.329Z,3.95
2022-11-25T03:54:00.092Z,3.90
2022-11-25T03:56:47.866Z,1.48
2022-11-25T03:59:35.598Z,1.35
2022-11-25T04:02:23.552Z,2.28
2022-11-25T04:05:11.633Z,1.35
2022-11-25T04:07:59.710Z,0.68
2022-11-25T04:10:50.153Z,0.77
2022-11-25T04:13:40.885Z,1.10
2022-11-25T04:16:28.715Z,1.45
2022-11-25T04:19:16.659Z,0.88
2022-11-25T04:22:04.517Z,1.40
2022-11-25T04:24:55.780Z,7.63
2022-11-25T04:27:46.403Z,0.80
2022-11-25T04:30:37.511Z,4.55
2022-11-25T04:33:25.241Z,0.30
2022-11-25T04:36:13.942Z,1.83
2022-11-25T04:39:01.644Z,2.25
2022-11-25T04:41:49.863Z,8.15
2022-11-25T04:44:38.003Z,4.50
2022-11-25T04:47:26.839Z,1.45
2022-11-25T04:50:21.352Z,1.85
2022-11-25T04:53:23.197Z,2.33
2022-11-25T04:56:17.899Z,0.70
2022-11-25T04:59:28.561Z,5.70
2022-11-25T05:02:19.308Z,1.70
2022-11-25T05:05:15.278Z,1.20
2022-11-25T05:08:03.215Z,1.90
2022-11-25T05:10:51.251Z,1.92
2022-11-25T05:13:43.420Z,3.28
2022-11-25T05:16:31.123Z,3.03
2022-11-25T05:19:21.127Z,1.60
2022-11-25T05:22:15.328Z,2.80
2022-11-25T05:25:06.389Z,2.58
2022-11-25T05:27:59.052Z,3.30
2022-11-25T05:30:46.830Z,1.98
2022-11-25T05:33:35.033Z,1.88
2022-11-25T05:36:33.461Z,1.80
2022-11-25T05:39:28.860Z,1.15
2022-11-25T05:42:52.850Z,3.30
2022-11-25T05:45:41.212Z,5.55
2022-11-25T05:48:30.529Z,1.08
2022-11-25T05:51:18.168Z,1.90
2022-11-25T05:54:06.153Z,1.33
2022-11-25T05:56:59.206Z,5.95
2022-11-25T06:00:13.887Z,1.77
2022-11-25T06:03:10.491Z,1.92
2022-11-25T06:05:59.243Z,1.58
2022-11-25T06:08:47.800Z,5.45
2022-11-25T06:11:35.665Z,2.13
2022-11-25T06:14:23.368Z,2.90
2022-11-25T06:17:11.808Z,0.90
2022-11-25T06:20:08.500Z,3.80
2022-11-25T06:22:58.808Z,2.65
2022-11-25T06:25:52.456Z,1.10
2022-11-25T06:28:40.318Z,1.40
2022-11-25T06:31:28.260Z,1.88
2022-11-25T06:34:42.145Z,3.70
2022-11-25T06:37:39.734Z,4.43
2022-11-25T06:40:27.581Z,2.28
2022-11-25T06:43:15.256Z,2.97
2022-11-25T06:46:07.738Z,2.60
2022-11-25T06:48:55.595Z,3.33
2022-11-25T06:51:43.202Z,2.83
2022-11-25T06:54:31.184Z,1.70
2022-11-25T06:57:20.090Z,2.85
2022-11-25T07:00:08.472Z,1.45
2022-11-25T07:02:56.120Z,4.10
2022-11-25T07:05:43.763Z,2.47
2022-11-25T07:08:34.157Z,3.15
2022-11-25T07:11:30.734Z,3.83
2022-11-25T07:14:18.509Z,3.58
2022-11-25T07:17:11.576Z,1.58
2022-11-25T07:19:59.852Z,1.55
2022-11-25T07:22:47.558Z,6.30
2022-11-25T07:25:35.256Z,2.38
2022-11-25T07:28:22.910Z,2.13
2022-11-25T07:31:24.198Z,4.45
2022-11-25T07:37:02.280Z,2.53
2022-11-25T07:39:49.965Z,1.95
2022-11-25T07:42:40.698Z,2.55
2022-11-25T07:45:33.152Z,4.82
2022-11-25T07:48:29.224Z,3.03
2022-11-25T07:51:24.419Z,1.65
2022-11-25T07:54:13.294Z,1.10
2022-11-25T07:57:01.039Z,1.38
2022-11-25T07:59:48.741Z,1.30
2022-11-25T08:02:36.504Z,1.98
2022-11-25T08:05:24.286Z,2.15
2022-11-25T08:08:12.155Z,5.78
2022-11-25T08:10:59.832Z,5.60
2022-11-25T08:13:48.119Z,3.00
2022-11-25T08:16:35.931Z,3.70
2022-11-25T08:19:28.450Z,3.85
2022-11-25T08:22:18.914Z,2.40
2022-11-25T08:25:07.083Z,1.45
2022-11-25T08:27:54.753Z,3.53
2022-11-25T08:30:42.600Z,3.92
2022-11-25T08:33:30.185Z,2.35
2022-11-25T08:36:18.551Z,10.10
2022-11-25T08:39:29.073Z,10.55
2022-11-25T08:42:15.527Z,4.68
2022-11-25T08:45:04.387Z,11.52
2022-11-25T08:47:52.143Z,14.25
2022-11-25T08:50:47.322Z,5.63
2022-11-25T08:53:35.083Z,6.90
2022-11-25T08:56:26.215Z,4.78
2022-11-25T08:59:14.340Z,1.45
2022-11-25T09:02:02.703Z,1.42
2022-11-25T09:04:52.750Z,2.33
2022-11-25T09:07:40.754Z,3.33
2022-11-25T09:10:30.119Z,3.72
2022-11-25T09:13:17.864Z,2.38
2022-11-25T09:16:06.333Z,3.35
2022-11-25T09:18:57.010Z,4.13
2022-11-25T09:21:44.892Z,3.38
2022-11-25T09:24:32.556Z,8.02
2022-11-25T09:27:20.397Z,2.60
2022-11-25T09:30:08.616Z,6.07
2022-11-25T09:32:58.700Z,2.53
2022-11-25T09:35:47.668Z,2.58
2022-11-25T09:38:38.907Z,3.55
2022-11-25T09:41:52.418Z,1.60
2022-11-25T09:45:09.051Z,6.75
2022-11-25T09:48:08.798Z,1.83
2022-11-25T09:51:15.064Z,6.20
2022-11-25T09:54:32.805Z,4.45
2022-11-25T09:57:27.341Z,3.63
2022-11-25T10:00:22.058Z,4.45
2022-11-25T10:03:37.975Z,5.55
2022-11-25T10:06:38.558Z,2.72
2022-11-25T10:09:29.326Z,5.88
2022-11-25T10:12:26.519Z,3.58
2022-11-25T10:15:21.075Z,2.22
2022-11-25T10:18:21.762Z,7.80
2022-11-25T10:21:11.872Z,4.18
2022-11-25T10:23:59.644Z,6.63
2022-11-25T10:26:58.418Z,6.32
2022-11-25T10:29:56.128Z,3.00
2022-11-25T10:32:50.202Z,1.80
2022-11-25T10:36:00.905Z,3.00
2022-11-25T10:38:59.702Z,1.52
2022-11-25T10:41:51.449Z,2.80
2022-11-25T10:44:41.491Z,1.70
2022-11-25T10:47:34.210Z,2.33
2022-11-25T10:50:43.024Z,4.43
2022-11-25T10:53:32.947Z,3.70
2022-11-25T10:56:20.729Z,2.65
2022-11-25T10:59:27.327Z,3.55
2022-11-25T11:02:35.872Z,3.33
2022-11-25T11:05:30.156Z,7.72
2022-11-25T11:08:27.460Z,9.85
2022-11-25T11:11:20.958Z,4.70
2022-11-25T11:14:08.588Z,3.03
2022-11-25T11:16:57.559Z,4.70
2022-11-25T11:20:05.690Z,3.42
2022-11-25T11:23:09.425Z,2.60
2022-11-25T11:26:09.874Z,3.88
2022-11-25T11:28:59.032Z,5.35
2022-11-25T11:31:58.605Z,7.93
2022-11-25T11:34:49.158Z,6.65
2022-11-25T11:37:44.430Z,2.13
2022-11-25T11:40:52.012Z,2.40
2022-11-25T11:44:09.008Z,3.45
2022-11-25T11:47:11.553Z,11.50
2022-11-25T11:50:05.266Z,4.80
2022-11-25T11:52:55.630Z,5.65
2022-11-25T11:56:26.816Z,3.45
2022-11-25T11:59:47.008Z,4.72
2022-11-25T12:03:13.325Z,2.97
2022-11-25T12:06:08.037Z,4.40
2022-11-25T12:09:03.300Z,5.38
2022-11-25T12:11:56.062Z,4.45
2022-11-25T12:14:49.806Z,4.13
2022-11-25T12:17:47.398Z,6.80
2022-11-25T12:20:57.949Z,3.40
2022-11-25T12:23:55.297Z,7.38
2022-11-25T12:27:02.706Z,6.05
2022-11-25T12:29:50.305Z,4.40
2022-11-25T12:33:20.429Z,11.45
2022-11-25T12:36:13.748Z,6.43
2022-11-25T12:39:19.732Z,5.32
2022-11-25T12:42:17.031Z,3.95
2022-11-25T12:45:23.215Z,2.63
2022-11-25T12:48:13.111Z,4.63
2022-11-25T12:51:13.971Z,3.53
2022-11-25T12:54:07.583Z,2.53
2022-11-25T12:57:07.514Z,2.28
2022-11-25T13:00:17.502Z,2.30
2022-11-25T13:03:17.443Z,3.80
2022-11-25T13:06:24.358Z,5.32
2022-11-25T13:09:37.305Z,3.17
2022-11-25T13:12:55.984Z,4.68
2022-11-25T13:15:49.345Z,7.60
2022-11-25T13:18:42.274Z,4.43
2022-11-25T13:21:29.978Z,3.05
2022-11-25T13:24:40.977Z,3.80
2022-11-25T13:27:52.634Z,6.55
2022-11-25T13:30:40.382Z,3.47
2022-11-25T13:33:28.060Z,2.70
2022-11-25T13:36:21.949Z,5.20
2022-11-25T13:39:18.060Z,7.07
2022-11-25T13:42:26.275Z,6.85
2022-11-25T13:45:56.451Z,4.75
2022-11-25T13:48:46.992Z,4.63
2022-11-25T13:51:34.874Z,6.13
2022-11-25T13:54:37.486Z,5.78
2022-11-25T13:57:37.061Z,9.00
2022-11-25T14:00:35.303Z,5.97
2022-11-25T14:03:23.099Z,12.30
2022-11-25T14:06:52.908Z,6.75
2022-11-25T14:09:44.061Z,8.32
2022-11-25T14:12:43.692Z,4.47
2022-11-25T14:16:01.104Z,7.38
2022-11-25T14:19:43.256Z,4.55
2022-11-25T14:22:37.336Z,6.47
2022-11-25T14:25:45.104Z,6.50
2022-11-25T14:28:48.964Z,5.57
2022-11-25T14:31:52.099Z,8.63
2022-11-25T14:35:02.396Z,5.97
2022-11-25T14:38:07.610Z,4.55
2022-11-25T14:41:01.858Z,10.85
2022-11-25T14:43:58.461Z,5.65
2022-11-25T14:46:58.585Z,5.55
2022-11-25T14:53:09.271Z,9.63
2022-11-25T14:56:01.182Z,12.55
2022-11-25T14:58:54.578Z,19.75
2022-11-25T15:01:54.292Z,24.50
2022-11-25T15:04:42.187Z,19.20
2022-11-25T15:07:31.483Z,15.82
2022-11-25T15:11:02.288Z,13.77
2022-11-25T15:13:58.294Z,21.35
2022-11-25T15:16:46.513Z,19.20
2022-11-25T15:19:36.408Z,70.35
2022-11-25T15:22:24.862Z,38.40
2022-11-25T15:25:16.007Z,69.80
2022-11-25T15:28:18.885Z,35.35
2022-11-25T15:31:17.637Z,28.58
2022-11-25T15:34:13.874Z,26.85
2022-11-25T15:37:05.011Z,21.65
2022-11-25T15:40:29.996Z,23.40
2022-11-25T15:43:30.299Z,46.92
2022-11-25T15:46:18.785Z,37.80
2022-11-25T15:49:07.909Z,23.98
2022-11-25T15:52:14.662Z,76.60
2022-11-25T15:55:08.342Z,37.92
2022-11-25T15:58:03.365Z,46.05
2022-11-25T16:01:24.203Z,29.52
2022-11-25T16:04:21.581Z,25.48
2022-11-25T16:07:23.100Z,33.45
2022-11-25T16:10:34.177Z,30.85
2022-11-25T16:13:25.976Z,27.52
2022-11-25T16:16:31.732Z,21.52
2022-11-25T16:19:37.868Z,23.77
2022-11-25T16:22:32.431Z,43.35
2022-11-25T16:25:20.180Z,30.15
2022-11-25T16:28:21.241Z,20.02
2022-11-25T16:31:16.646Z,23.60
2022-11-25T16:34:15.645Z,28.80
2022-11-25T16:37:04.052Z,23.88
2022-11-25T16:39:51.806Z,38.70
2022-11-25T16:42:42.854Z,20.92
2022-11-25T16:45:30.780Z,9.07
2022-11-25T16:48:27.081Z,17.50
2022-11-25T16:51:20.472Z,11.50
2022-11-25T16:54:08.240Z,11.15
2022-11-25T16:56:56.023Z,14.77
2022-11-25T16:59:45.074Z,11.65
2022-11-25T17:02:33.594Z,14.95
2022-11-25T17:05:25.893Z,14.05
2022-11-25T17:11:04.364Z,22.25
2022-11-25T17:13:53.799Z,16.95
2022-11-25T17:16:43.218Z,15.85
2022-11-25T17:19:31.436Z,20.02
2022-11-25T17:22:22.418Z,17.75
2022-11-25T17:25:12.866Z,24.13
2022-11-25T17:28:00.932Z,22.48
2022-11-25T17:30:49.107Z,22.92
2022-11-25T17:33:36.989Z,28.95
2022-11-25T17:36:26.456Z,21.05
2022-11-25T17:39:15.296Z,24.83
2022-11-25T17:42:04.359Z,28.13
2022-11-25T17:44:54.254Z,17.80
2022-11-25T17:47:42.603Z,16.33
2022-11-25T17:50:30.365Z,26.33
2022-11-25T17:53:18.147Z,24.85
2022-11-25T17:56:28.650Z,28.42
2022-11-25T17:59:25.971Z,28.35
2022-11-25T18:02:22.207Z,22.65
2022-11-25T18:05:15.996Z,20.73
2022-11-25T18:08:03.866Z,13.70
2022-11-25T18:10:51.606Z,14.93
2022-11-25T18:13:40.869Z,20.83
2022-11-25T18:16:31.284Z,18.40
2022-11-25T18:19:19.185Z,19.30
2022-11-25T18:22:13.475Z,16.35
2022-11-25T18:25:05.211Z,23.30
2022-11-25T18:27:57.869Z,24.10
2022-11-25T18:30:46.437Z,28.00
2022-11-25T18:33:34.843Z,40.45
2022-11-25T18:36:25.584Z,32.45
2022-11-25T18:39:14.295Z,24.10
2022-11-25T18:42:03.778Z,25.48
2022-11-25T18:44:52.116Z,24.50
2022-11-25T18:47:39.743Z,49.45
2022-11-25T18:50:28.408Z,55.38
2022-11-25T18:53:20.959Z,50.22
2022-11-25T18:56:17.603Z,49.88
2022-11-25T18:59:14.385Z,31.98
2022-11-25T19:02:02.357Z,39.60
2022-11-25T19:04:50.186Z,56.75
2022-11-25T19:07:37.911Z,54.55
2022-11-25T19:10:29.792Z,49.15
2022-11-25T19:13:27.577Z,42.03
2022-11-25T19:16:18.530Z,50.58
2022-11-25T19:19:06.838Z,33.28
2022-11-25T19:21:54.562Z,37.92
2022-11-25T19:24:42.898Z,33.55
2022-11-25T19:27:36.419Z,36.63
2022-11-25T19:30:27.641Z,49.38
2022-11-25T19:33:40.603Z,68.70
2022-11-25T19:36:32.110Z,56.30
2022-11-25T19:39:22.424Z,65.72
2022-11-25T19:42:10.922Z,41.95
2022-11-25T19:45:03.749Z,50.92
2022-11-25T19:47:52.410Z,44.55
2022-11-25T19:50:40.738Z,59.97
2022-11-25T19:53:33.561Z,47.97
2022-11-25T19:56:27.323Z,44.47
2022-11-25T19:59:15.084Z,55.67
2022-11-25T20:02:03.001Z,62.88
2022-11-25T20:04:54.346Z,63.90
2022-11-25T20:07:44.114Z,57.47
2022-11-25T20:10:33.096Z,48.97
2022-11-25T20:13:23.298Z,57.88
2022-11-25T20:16:24.235Z,47.38
2022-11-25T20:19:18.254Z,49.08
2022-11-25T20:22:07.081Z,48.38
2022-11-25T20:25:00.612Z,41.60
2022-11-25T20:27:48.478Z,31.02
2022-11-25T20:30:36.169Z,22.52
2022-11-25T20:33:25.030Z,27.88
2022-11-25T20:36:17.268Z,43.30
2022-11-25T20:41:53.180Z,24.33
2022-11-25T20:44:41.533Z,22.65
2022-11-25T20:47:30.252Z,41.35
2022-11-25T20:50:19.904Z,24.13
2022-11-25T20:53:15.733Z,25.70
2022-11-25T20:56:03.710Z,18.50
2022-11-25T20:58:51.902Z,24.35
2022-11-25T21:01:39.667Z,24.85
2022-11-25T21:04:27.467Z,39.75
2022-11-25T21:07:16.062Z,51.38
2022-11-25T21:10:16.610Z,69.85
2022-11-25T21:13:09.761Z,64.55
2022-11-25T21:15:57.955Z,53.42
2022-11-25T21:18:46.122Z,47.90
2022-11-25T21:21:36.474Z,48.33
2022-11-25T21:24:45.306Z,60.03
2022-11-25T21:27:34.268Z,45.13
2022-11-25T21:30:25.005Z,52.13
2022-11-25T21:33:13.303Z,58.70
2022-11-25T21:36:01.110Z,46.95
2022-11-25T21:38:51.830Z,37.80
2022-11-25T21:41:39.532Z,27.23
2022-11-25T21:44:41.457Z,40.08
2022-11-25T21:47:30.284Z,27.35
2022-11-25T21:50:19.603Z,19.42
2022-11-25T21:53:07.598Z,16.60
2022-11-25T21:55:57.892Z,11.85
2022-11-25T21:58:48.191Z,15.98
2022-11-25T22:01:35.982Z,16.80
2022-11-25T22:04:24.727Z,16.08
2022-11-25T22:07:12.744Z,29.73
2022-11-25T22:10:00.589Z,20.48
2022-11-25T22:12:48.414Z,20.88
2022-11-25T22:15:36.578Z,15.07
2022-11-25T22:18:30.228Z,19.98
2022-11-25T22:21:17.947Z,39.03
2022-11-25T22:24:14.567Z,30.95
2022-11-25T22:27:03.618Z,17.17
2022-11-25T22:29:52.160Z,21.77
2022-11-25T22:32:42.392Z,12.02
2022-11-25T22:35:32.318Z,10.10
2022-11-25T22:38:20.043Z,14.43
2022-11-25T22:41:10.527Z,13.32
2022-11-25T22:44:00.648Z,14.60
2022-11-25T22:46:49.949Z,16.65
2022-11-25T22:49:44.607Z,19.38
2022-11-25T22:52:34.851Z,21.92
2022-11-25T22:55:30.926Z,32.63
2022-11-25T22:58:18.699Z,24.80
2022-11-25T23:01:06.529Z,23.95
2022-11-25T23:03:54.244Z,15.32
2022-11-25T23:06:42.000Z,19.52
2022-11-25T23:09:29.756Z,20.00
2022-11-25T23:12:18.363Z,18.08
2022-11-25T23:15:06.571Z,11.32
2022-11-25T23:17:58.035Z,15.73
2022-11-25T23:20:45.791Z,10.23
2022-11-25T23:23:33.590Z,11.35
2022-11-25T23:26:21.802Z,14.30
2022-11-25T23:29:09.595Z,8.73
2022-11-25T23:31:59.798Z,6.63
2022-11-25T23:34:50.297Z,9.07
2022-11-25T23:37:38.017Z,11.30
2022-11-25T23:40:26.977Z,8.63
2022-11-25T23:43:15.934Z,13.90
2022-11-25T23:46:03.810Z,17.23
2022-11-25T23:49:07.480Z,9.38
2022-11-25T23:51:56.475Z,11.90
